createdAt,value
2022-12-11T00:03:15.360Z,78.65
2022-12-11T00:08:38.147Z,78.71
2022-12-11T00:14:00.387Z,78.95
2022-12-11T00:19:22.207Z,79.21
2022-12-11T00:24:44.437Z,79.68
2022-12-11T00:30:07.067Z,79.55
2022-12-11T00:35:28.997Z,79.34
2022-12-11T00:40:51.327Z,79.35
2022-12-11T00:46:13.814Z,79.46
2022-12-11T00:51:35.498Z,79.64
2022-12-11T00:56:57.622Z,79.78
2022-12-11T01:02:20.049Z,79.71
2022-12-11T01:07:41.878Z,79.58
2022-12-11T01:13:06.827Z,79.63
2022-12-11T01:18:28.447Z,79.40
2022-12-11T01:23:51.379Z,79.68
2022-12-11T01:29:13.208Z,79.78
2022-12-11T01:34:34.836Z,79.58
2022-12-11T01:39:57.075Z,80.32
2022-12-11T01:45:22.506Z,80.29
2022-12-11T01:50:50.359Z,80.52
2022-12-11T01:56:12.187Z,80.16
2022-12-11T02:01:39.465Z,79.97
2022-12-11T02:07:01.041Z,79.93
2022-12-11T02:12:56.814Z,79.41
2022-12-11T02:18:34.194Z,79.15
2022-12-11T02:24:21.010Z,79.03
2022-12-11T02:29:50.973Z,78.76
2022-12-11T02:35:22.909Z,78.74
2022-12-11T02:40:46.772Z,78.15
2022-12-11T02:46:09.076Z,78.40
2022-12-11T02:51:33.642Z,78.14
2022-12-11T02:57:18.251Z,78.22
2022-12-11T03:02:41.154Z,78.03
2022-12-11T03:08:03.387Z,78.66
2022-12-11T03:13:25.443Z,78.53
2022-12-11T03:18:56.904Z,78.52
2022-12-11T03:24:41.913Z,78.48
2022-12-11T03:30:08.564Z,78.16
2022-12-11T03:35:37.113Z,78.12
2022-12-11T03:41:01.250Z,77.57
2022-12-11T03:46:27.928Z,78.09
2022-12-11T03:51:51.698Z,78.06
2022-12-11T03:57:16.372Z,77.67
2022-12-11T04:02:38.099Z,77.94
2022-12-11T04:07:59.905Z,78.37
2022-12-11T04:13:21.659Z,78.27
2022-12-11T04:19:01.823Z,77.96
2022-12-11T04:24:23.983Z,77.78
2022-12-11T04:29:45.608Z,78.12
2022-12-11T04:35:09.452Z,78.00
2022-12-11T04:40:31.503Z,78.27
2022-12-11T04:46:04.908Z,78.28
2022-12-11T04:51:28.378Z,78.43
2022-12-11T04:56:50.509Z,78.50
2022-12-11T05:02:12.537Z,78.62
2022-12-11T05:07:34.467Z,78.26
2022-12-11T05:12:56.505Z,78.78
2022-12-11T05:18:18.628Z,78.71
2022-12-11T05:23:41.962Z,79.21
2022-12-11T05:29:04.291Z,79.15
2022-12-11T05:34:25.975Z,79.40
2022-12-11T05:39:48.055Z,79.37
2022-12-11T05:45:10.765Z,79.62
2022-12-11T05:50:33.314Z,79.85
2022-12-11T05:55:55.846Z,79.95
2022-12-11T06:01:21.629Z,79.58
2022-12-11T06:06:44.020Z,79.49
2022-12-11T06:12:06.156Z,79.48
2022-12-11T06:17:28.080Z,79.25
2022-12-11T06:22:50.408Z,79.40
2022-12-11T06:28:12.138Z,78.72
2022-12-11T06:33:34.370Z,78.09
2022-12-11T06:38:56.226Z,77.71
2022-12-11T06:44:18.428Z,77.60
2022-12-11T06:49:40.170Z,77.82
2022-12-11T06:55:03.332Z,77.53
2022-12-11T07:00:25.119Z,77.26
2022-12-11T07:05:47.050Z,76.94
2022-12-11T07:11:12.588Z,76.61
2022-12-11T07:16:34.167Z,76.54
2022-12-11T07:21:56.349Z,76.86
2022-12-11T07:27:18.581Z,76.69
2022-12-11T07:32:40.645Z,76.23
2022-12-11T07:38:02.941Z,75.71
2022-12-11T07:43:24.770Z,75.70
2022-12-11T07:48:47.684Z,75.57
2022-12-11T07:54:16.619Z,75.83
2022-12-11T07:59:38.284Z,75.83
2022-12-11T08:05:00.215Z,75.55
2022-12-11T08:10:23.251Z,75.83
2022-12-11T08:15:45.174Z,75.61
2022-12-11T08:21:11.906Z,75.61
2022-12-11T08:26:33.745Z,75.38
2022-12-11T08:31:55.981Z,74.96
2022-12-11T08:37:18.010Z,74.59
2022-12-11T08:42:39.841Z,74.85
2022-12-11T08:48:02.184Z,74.97
2022-12-11T08:53:24.501Z,75.07
2022-12-11T08:58:47.335Z,75.07
2022-12-11T09:04:09.264Z,75.23
2022-12-11T09:09:31.099Z,75.63
2022-12-11T09:14:52.921Z,75.01
2022-12-11T09:20:14.681Z,74.62
2022-12-11T09:25:40.493Z,74.53
2022-12-11T09:31:02.185Z,74.44
2022-12-11T09:36:24.927Z,73.85
2022-12-11T09:42:08.659Z,73.16
2022-12-11T09:47:43.133Z,73.09
2022-12-11T09:53:22.223Z,72.88
2022-12-11T09:59:19.074Z,72.79
2022-12-11T10:04:43.987Z,72.84
2022-12-11T10:10:33.641Z,72.25
2022-12-11T10:16:37.622Z,71.52
2022-12-11T10:22:00.482Z,71.79
2022-12-11T10:27:27.615Z,71.50
2022-12-11T10:33:01.572Z,71.89
2022-12-11T10:38:41.662Z,71.35
2022-12-11T10:44:21.354Z,71.19
2022-12-11T10:49:52.019Z,71.20
2022-12-11T10:55:22.975Z,71.72
2022-12-11T11:00:45.707Z,71.65
2022-12-11T11:06:17.278Z,71.91
2022-12-11T11:11:39.610Z,72.04
2022-12-11T11:17:01.763Z,72.01
2022-12-11T11:22:23.509Z,71.69
2022-12-11T11:27:55.325Z,72.09
2022-12-11T11:33:21.469Z,72.28
2022-12-11T11:39:28.657Z,72.19
2022-12-11T11:45:12.305Z,71.70
2022-12-11T11:50:35.897Z,71.78
2022-12-11T11:56:13.382Z,71.28
2022-12-11T12:01:35.468Z,71.07
2022-12-11T12:07:08.580Z,71.05
2022-12-11T12:13:02.324Z,70.75
2022-12-11T12:18:59.876Z,70.75
2022-12-11T12:24:27.826Z,70.65
2022-12-11T12:29:55.079Z,71.06
2022-12-11T12:35:34.263Z,71.03
2022-12-11T12:41:14.657Z,71.07
2022-12-11T12:46:45.417Z,71.12
2022-12-11T12:52:19.183Z,71.57
2022-12-11T12:57:45.005Z,71.58
2022-12-11T13:03:15.396Z,71.67
2022-12-11T13:08:49.864Z,71.75
2022-12-11T13:14:14.202Z,71.21
2022-12-11T13:19:42.060Z,71.47
2022-12-11T13:25:28.675Z,71.45
2022-12-11T13:31:01.942Z,71.13
2022-12-11T13:36:28.140Z,71.32
2022-12-11T13:41:56.892Z,71.37
2022-12-11T13:47:19.971Z,71.54
2022-12-11T13:52:43.001Z,72.16
2022-12-11T13:58:16.124Z,71.83
2022-12-11T14:03:47.286Z,71.20
2022-12-11T14:09:09.499Z,71.57
2022-12-11T14:14:41.104Z,71.91
2022-12-11T14:20:08.521Z,72.10
2022-12-11T14:25:31.015Z,71.97
2022-12-11T14:30:52.946Z,72.01
2022-12-11T14:36:16.439Z,71.92
2022-12-11T14:41:54.423Z,72.35
2022-12-11T14:47:23.156Z,72.47
2022-12-11T14:52:48.655Z,72.00
2022-12-11T14:58:25.075Z,72.27
2022-12-11T15:03:47.548Z,72.71
2022-12-11T15:09:17.779Z,72.75
2022-12-11T15:14:50.283Z,72.67
2022-12-11T15:20:26.351Z,72.70
2022-12-11T15:25:53.313Z,72.85
2022-12-11T15:31:27.292Z,72.74
2022-12-11T15:36:49.099Z,72.89
2022-12-11T15:42:14.098Z,73.03
2022-12-11T15:47:35.681Z,72.94
2022-12-11T15:52:57.801Z,72.61
2022-12-11T15:58:22.127Z,72.27
2022-12-11T16:03:44.194Z,71.99
2022-12-11T16:09:06.079Z,72.22
2022-12-11T16:14:27.750Z,71.95
2022-12-11T16:19:49.768Z,71.94
2022-12-11T16:25:11.998Z,71.89
2022-12-11T16:30:36.074Z,71.84
2022-12-11T16:35:57.892Z,71.64
2022-12-11T16:41:19.555Z,71.64
2022-12-11T16:46:41.605Z,71.83
2022-12-11T16:52:03.588Z,71.89
2022-12-11T16:57:25.883Z,71.78
2022-12-11T17:02:48.343Z,71.81
2022-12-11T17:08:11.004Z,71.74
2022-12-11T17:13:36.120Z,72.01
2022-12-11T17:18:58.702Z,72.02
2022-12-11T17:24:20.692Z,72.05
2022-12-11T17:29:42.548Z,71.84
2022-12-11T17:35:04.793Z,71.47
2022-12-11T17:40:27.041Z,71.78
2022-12-11T17:45:52.664Z,71.85
2022-12-11T17:51:21.156Z,71.85
2022-12-11T17:56:42.631Z,71.88
2022-12-11T18:02:04.425Z,71.84
2022-12-11T18:07:26.548Z,71.83
2022-12-11T18:12:48.752Z,72.13
2022-12-11T18:18:10.778Z,72.08
2022-12-11T18:23:33.054Z,72.15
2022-12-11T18:28:55.038Z,72.01
2022-12-11T18:34:17.623Z,71.86
2022-12-11T18:39:41.784Z,72.00
2022-12-11T18:45:04.406Z,71.84
2022-12-11T18:50:26.911Z,71.88
2022-12-11T18:55:49.315Z,71.75
2022-12-11T19:01:33.182Z,72.17
2022-12-11T19:06:55.034Z,71.87
2022-12-11T19:12:17.493Z,71.61
2022-12-11T19:17:39.725Z,71.69
2022-12-11T19:23:01.434Z,71.48
2022-12-11T19:28:23.367Z,71.96
2022-12-11T19:33:46.875Z,71.98
2022-12-11T19:39:13.008Z,71.87
2022-12-11T19:44:35.159Z,71.36
2022-12-11T19:49:57.151Z,71.37
2022-12-11T19:55:21.704Z,71.33
2022-12-11T20:00:43.920Z,71.35
2022-12-11T20:06:08.848Z,71.42
2022-12-11T20:11:31.878Z,71.37
2022-12-11T20:17:13.029Z,71.40
2022-12-11T20:22:36.073Z,71.33
2022-12-11T20:27:58.148Z,71.03
2022-12-11T20:33:20.023Z,70.87
2022-12-11T20:38:42.263Z,70.96
2022-12-11T20:44:04.658Z,71.09
2022-12-11T20:49:26.443Z,71.11
2022-12-11T20:54:48.548Z,71.04
2022-12-11T21:00:11.392Z,70.78
2022-12-11T21:05:33.710Z,70.58
2022-12-11T21:10:55.501Z,70.82
2022-12-11T21:16:18.217Z,70.82
2022-12-11T21:21:40.705Z,70.96
2022-12-11T21:27:02.890Z,70.81
2022-12-11T21:32:25.172Z,70.86
2022-12-11T21:37:47.293Z,71.04
2022-12-11T21:43:09.221Z,70.90
2022-12-11T21:48:31.269Z,71.36
2022-12-11T21:53:54.386Z,71.51
2022-12-11T21:59:16.288Z,71.12
2022-12-11T22:04:38.197Z,71.26
2022-12-11T22:09:59.976Z,71.29
2022-12-11T22:15:22.005Z,71.15
2022-12-11T22:20:44.335Z,71.05
2022-12-11T22:26:11.461Z,71.17
2022-12-11T22:31:33.516Z,71.43
2022-12-11T22:36:55.343Z,71.49
2022-12-11T22:42:17.258Z,71.65
2022-12-11T22:47:39.401Z,71.49
2022-12-11T22:53:01.630Z,71.45
2022-12-11T22:58:23.470Z,71.18
2022-12-11T23:03:46.077Z,71.19
2022-12-11T23:09:08.324Z,71.22
2022-12-11T23:14:30.286Z,71.09
2022-12-11T23:19:52.292Z,71.17
2022-12-11T23:25:14.569Z,71.39
2022-12-11T23:30:36.856Z,71.49
2022-12-11T23:35:59.674Z,71.82
2022-12-11T23:41:21.652Z,71.80
2022-12-11T23:46:45.057Z,71.89
2022-12-11T23:52:07.470Z,71.92
2022-12-11T23:57:29.243Z,72.07
